Flight Track Log - Related Links

Times and Time Zones

All times are in EDT time to prevent confusion due to time zone crossing. See the TCF3494 flight status page for this flight to view local times or setup timezone preferences in your user account.

Time Position Orientation Groundspeed Altitude Reporting Facility
EDT Latitude Longitude Course Direction KTS MPH feet Rate Location/Type
Mon 07:17:51 PM 40.7500 -73.8333 304° West 130 150 1,500  Level New York TRACON
Mon 07:18:51 PM 40.7333 -73.7833 114° Southeast 223 257 4,000 2,400 Climbing New York TRACON
Mon 07:19:51 PM 40.8000 -73.7500 21° North 276 318 6,300 1,803 Climbing New York TRACON
Mon 07:20:00 PM 40.9370 -74.2406 304° West  Level FlightAware Approximate
Mon 07:21:00 PM 40.9853 -74.3381 299° West  Level FlightAware Approximate
Mon 07:21:54 PM 40.8889 -73.9031 308° West 295 339 9,500  Level New York Center
Mon 07:22:00 PM 41.0280 -74.4403 299° West  Level FlightAware Approximate
Mon 07:22:52 PM 40.9317 -74.0122 297° West 295 339 12,000  Level New York Center
Mon 07:23:00 PM 41.0711 -74.5422 304° West  Level FlightAware Approximate
Mon 07:23:53 PM 40.9642 -74.1153 293° West 319 367 14,800  Level New York Center
Mon 07:24:53 PM 40.9983 -74.2297 292° West 337 388 16,000 600 Climbing New York Center
Mon 07:25:53 PM 41.0400 -74.3694 292° West 360 414 16,000 347 Level New York Center
Mon 07:26:54 PM 41.0778 -74.4981 291° West 368 423 16,700 1,412 Climbing New York Center
Mon 07:27:52 PM 41.1136 -74.6156 292° West 378 435 18,800 2,067 Climbing New York Center
Mon 07:28:53 PM 41.1631 -74.7561 295° West 373 429 20,800 1,850 Climbing New York Center
Mon 07:29:52 PM 41.2192 -74.8808 301° West 386 444 22,500 1,765 Climbing New York Center
Mon 07:30:52 PM 41.2767 -75.0197 299° West 408 470 24,300 1,623 Climbing New York Center
Mon 07:31:54 PM 41.3344 -75.1531 300° West 414 476 25,800 1,300 Climbing New York Center
Mon 07:32:52 PM 41.3936 -75.2925 300° West 425 489 26,900 1,322 Climbing New York Center
Mon 07:33:52 PM 41.4528 -75.4322 300° West 435 501 28,400 1,240 Climbing New York Center
Mon 07:34:53 PM 41.5031 -75.5825 294° West 435 501 29,400 787 Climbing New York Center
Mon 07:35:54 PM 41.5489 -75.7353 292° West 440 506 30,000 744 Climbing New York Center
Mon 07:36:54 PM 41.5903 -75.8911 290° West 445 512 30,900 1,017 Climbing New York Center
Mon 07:37:52 PM 41.6164 -76.0539 282° West 445 512 32,000 1,017 Climbing New York Center
Mon 07:38:52 PM 41.6383 -76.2139 280° West 445 512 32,900 700 Climbing New York Center
Mon 07:39:52 PM 41.6558 -76.3764 278° West 445 512 33,400 500 Climbing New York Center
Mon 07:40:52 PM 41.6750 -76.5364 279° West 445 512 33,900 545 Climbing New York Center
Mon 07:41:53 PM 41.6961 -76.7019 280° West 451 519 34,500 492 Climbing New York Center
Mon 07:42:54 PM 41.7139 -76.8453 279° West 451 519 34,900 459 Climbing New York Center
Mon 07:45:09 PM 41.7567 -77.2289 279° West 441 507 36,000 338 Climbing Cleveland Center
Mon 07:46:09 PM 41.7758 -77.3839 279° West 435 501 36,000  Level Cleveland Center
Mon 07:47:09 PM 41.7925 -77.5417 278° West 435 501 36,000  Level Cleveland Center
Mon 07:48:09 PM 41.8092 -77.6997 278° West 430 495 36,000  Level Cleveland Center
Mon 07:49:09 PM 41.8278 -77.8606 279° West 430 495 36,000  Level Cleveland Center
Mon 07:50:09 PM 41.8439 -78.0161 278° West 430 495 36,000  Level Cleveland Center
Mon 07:51:09 PM 41.8719 -78.1600 285° West 435 501 36,000  Level Cleveland Center
Mon 07:52:09 PM 41.9042 -78.3122 286° West 435 501 36,000  Level Cleveland Center
Mon 07:53:09 PM 41.9383 -78.4644 287° West 430 495 36,000  Level Cleveland Center
Mon 07:54:09 PM 41.9703 -78.6169 286° West 430 495 36,000  Level Cleveland Center
Mon 07:55:09 PM 42.0019 -78.7614 286° West 425 489 36,000  Level Cleveland Center
Mon 07:56:09 PM 42.0331 -78.8975 287° West 400 460 36,000  Level Cleveland Center
Mon 07:57:09 PM 42.0622 -79.0311 286° West 385 443 36,000  Level Cleveland Center
Mon 07:58:09 PM 42.0908 -79.1703 286° West 379 436 36,000  Level Cleveland Center
Mon 07:59:09 PM 42.1217 -79.3067 287° West 379 436 36,000  Level Cleveland Center
Mon 08:00:09 PM 42.1503 -79.4461 286° West 379 436 36,000  Level Cleveland Center
Mon 08:01:09 PM 42.1786 -79.5858 285° West 379 436 36,000  Level Cleveland Center
Mon 08:02:09 PM 42.2089 -79.7283 286° West 384 442 36,000  Level Cleveland Center
Mon 08:03:09 PM 42.2392 -79.8764 285° West 397 457 36,000  Level Cleveland Center
Mon 08:04:09 PM 42.2756 -80.0444 286° West 410 472 36,000  Level Cleveland Center
Mon 08:05:09 PM 42.3053 -80.1958 285° West 412 474 36,000  Level Cleveland Center
Mon 08:06:09 PM 42.3369 -80.3472 286° West 412 474 36,000  Level Cleveland Center
Mon 08:07:09 PM 42.3622 -80.4792 285° West 412 474 36,000  Level Cleveland Center
Mon 08:08:09 PM 42.3936 -80.6339 285° West 417 480 36,000  Level Cleveland Center
Mon 08:09:09 PM 42.4225 -80.7800 285° West 417 480 36,000  Level Cleveland Center
Mon 08:10:09 PM 42.4514 -80.9350 284° West 417 480 36,000  Level Cleveland Center
Mon 08:11:09 PM 42.4842 -81.0814 287° West 412 474 36,000  Level Cleveland Center
Mon 08:12:10 PM 42.5125 -81.2339 284° West 417 480 36,000  Level Cleveland Center
Mon 08:13:09 PM 42.5408 -81.3864 284° West 417 480 36,000  Level Cleveland Center
Mon 08:14:09 PM 42.5708 -81.5417 285° West 417 480 36,000  Level Cleveland Center
Mon 08:15:09 PM 42.6028 -81.7058 285° West 417 480 36,000  Level Cleveland Center
Mon 08:16:09 PM 42.6264 -81.8444 283° West 417 480 36,000  Level Cleveland Center
Mon 08:17:09 PM 42.6558 -82.0003 284° West 417 480 36,000  Level Cleveland Center
Mon 08:18:09 PM 42.6850 -82.1508 285° West 417 480 36,000  Level Cleveland Center
Mon 08:19:09 PM 42.7119 -82.3069 283° West 417 480 36,000  Level Cleveland Center
Mon 08:20:09 PM 42.7408 -82.4603 284° West 417 480 36,000  Level Cleveland Center
Mon 08:21:09 PM 42.7694 -82.6194 284° West 417 480 36,000  Level Cleveland Center
Mon 08:22:09 PM 42.7958 -82.7733 283° West 417 480 36,000  Level Cleveland Center
Mon 08:23:09 PM 42.8261 -82.9272 285° West 417 480 36,000  Level Cleveland Center
Mon 08:24:09 PM 42.8500 -83.0811 282° West 417 480 36,000  Level Cleveland Center
Mon 08:25:09 PM 42.8778 -83.2353 284° West 417 480 36,000  Level Cleveland Center
Mon 08:26:09 PM 42.9033 -83.3864 283° West 417 480 36,000  Level Cleveland Center
Mon 08:27:09 PM 42.9078 -83.5425 272° West 412 474 36,000  Level Cleveland Center
Mon 08:28:09 PM 42.9036 -83.6983 268° West 412 474 36,000  Level Cleveland Center
Mon 08:29:09 PM 42.9014 -83.8569 269° West 412 474 36,000  Level Cleveland Center
Mon 08:30:09 PM 42.8969 -84.0156 268° West 419 482 36,000  Level Cleveland Center
Mon 08:31:09 PM 42.8919 -84.1739 268° West 419 482 36,000 -830 Level Cleveland Center
Mon 08:32:48 PM 42.8878 -84.4236 269° West 412 474 33,800 -1,491 Descending Chicago Center
Mon 08:33:50 PM 42.8833 -84.5747 268° West 401 461 32,000 -871 Descending Chicago Center
Mon 08:34:52 PM 42.8700 -84.7258 263° West 403 464 32,000  Level Chicago Center
Mon 08:35:54 PM 42.8511 -84.9047 262° West 400 460 32,000  Level Chicago Center
Mon 08:36:56 PM 42.8350 -85.0519 262° West 394 453 32,000 -484 Level Chicago Center
Mon 08:37:58 PM 42.8194 -85.2006 262° West 395 455 31,000 -1,210 Descending Chicago Center
Mon 08:39:00 PM 42.8042 -85.3436 262° West 385 443 29,500 -1,355 Descending Chicago Center
Mon 08:40:02 PM 42.7878 -85.4861 261° West 381 438 28,200 -1,355 Descending Chicago Center
Mon 08:41:04 PM 42.7639 -85.6275 257° West 382 440 26,700 -1,548 Descending Chicago Center
Mon 08:42:06 PM 42.7339 -85.7900 256° West 369 425 25,000 -1,452 Descending Chicago Center
Mon 08:43:08 PM 42.7103 -85.9211 256° West 358 412 23,700 -1,306 Descending Chicago Center
Mon 08:44:10 PM 42.6867 -86.0503 256° West 352 405 22,300 -1,306 Descending Chicago Center
Mon 08:45:12 PM 42.6633 -86.1786 256° West 349 402 21,000 -1,113 Descending Chicago Center
Mon 08:46:14 PM 42.6400 -86.3050 256° West 344 396 20,000 -484 Descending Chicago Center
Mon 08:47:16 PM 42.6164 -86.4289 256° West 341 392 20,000 -1,016 Level Chicago Center
Mon 08:48:18 PM 42.5928 -86.5528 256° West 341 392 17,900 -2,274 Descending Chicago Center
Mon 08:49:20 PM 42.5658 -86.6956 256° West 326 375 15,300 -1,920 Descending Chicago Center
Mon 08:50:23 PM 42.5394 -86.8114 253° West 326 375 13,900 -1,344 Descending Chicago Center
Mon 08:51:25 PM 42.5094 -86.9200 249° West 315 362 12,500 -1,355 Descending Chicago Center
Mon 08:52:27 PM 42.4794 -87.0281 249° West 310 357 11,100 -1,161 Descending Chicago Center
Mon 08:53:29 PM 42.4497 -87.1303 249° West 297 342 10,100 -968 Descending Chicago Center
Mon 08:54:31 PM 42.4250 -87.2178 249° West 257 296 9,100 -532 Descending Chicago Center
Mon 08:55:33 PM 42.3964 -87.3283 251° West 258 297 9,000 -677 Descending Chicago Center
Mon 08:56:35 PM 42.3714 -87.4194 250° West 254 292 7,700 -968 Descending Chicago Center
Mon 08:57:37 PM 42.3469 -87.5036 249° West 234 269 7,000 -339 Descending Chicago Center
Mon 08:58:39 PM 42.3061 -87.5528 222° Southwest 217 250 7,000 -387 Level Chicago Center
Mon 08:59:41 PM 42.2669 -87.5956 219° Southwest 192 221 6,200 -484 Descending Chicago Center
Mon 09:00:43 PM 42.2308 -87.6364 220° Southwest 174 200 6,000 -339 Descending Chicago Center
Mon 09:01:45 PM 42.1842 -87.6894 220° Southwest 182 209 5,500 -726 Descending Chicago Center
Mon 09:02:47 PM 42.1464 -87.7322 220° Southwest 180 207 4,500 -990 Descending Chicago Center
Mon 09:03:22 PM 42.1167 -87.7500 204° Southwest 168 193 3,900 -947 Descending Chicago TRACON
Mon 09:04:22 PM 42.0833 -87.8000 228° Southwest 170 196 3,000 -939 Descending Chicago TRACON
Mon 09:05:17 PM 42.0500 -87.8333 217° Southwest 166 191 2,100 -982 Descending Chicago TRACON

Login

Don't have an account? Register now (free) for customized features, flight alerts, and more!